Terminal Aerodrome Forecast
Issued by NWS

Home | Current Version | Previous Version | Text Only | Print | Product List | Glossary On
Versions: 1 2 3 4 5 6 7 8 9 10 11 12 13 14 15 16 17 18 19 20 21 22 23 24 25
000
FTUS43 KMPX 051132
TAFAXN
TAF
KAXN 051132Z 0512/0612 13006KT 4SM BR SCT070
     FM051500 16012G20KT P6SM SCT050 BKN100
     FM052200 15010G17KT P6SM BKN050 PROB30 0522/0602 3SM TSRA
      OVC050CB
     FM060700 14007KT P6SM VCSH OVC040=

USA.gov is the U.S. government's official web portal to all federal, state and local government web resources and services.